sensor_id;sensor_type;location;lat;lon;timestamp;P1;durP1;ratioP1;P2;durP2;ratioP2
61523;SDS011;47393;38.758;-9.164;2022-07-05T00:01:37;23.10;;;15.32;;
61523;SDS011;47393;38.758;-9.164;2022-07-05T00:03:59;27.58;;;15.05;;
61523;SDS011;47393;38.758;-9.164;2022-07-05T00:06:00;23.45;;;15.68;;
61523;SDS011;47393;38.758;-9.164;2022-07-05T00:08:12;26.05;;;15.77;;
61523;SDS011;47393;38.758;-9.164;2022-07-05T00:10:38;19.48;;;14.77;;
61523;SDS011;47393;38.758;-9.164;2022-07-05T00:12:46;25.15;;;15.85;;
61523;SDS011;47393;38.758;-9.164;2022-07-05T00:15:40;24.98;;;15.68;;
61523;SDS011;47393;38.758;-9.164;2022-07-05T00:17:52;28.27;;;16.65;;
61523;SDS011;47393;38.758;-9.164;2022-07-05T00:19:54;35.75;;;18.05;;
61523;SDS011;47393;38.758;-9.164;2022-07-05T00:21:57;28.13;;;16.30;;
61523;SDS011;47393;38.758;-9.164;2022-07-05T00:23:59;33.53;;;17.38;;
61523;SDS011;47393;38.758;-9.164;2022-07-05T00:26:03;34.40;;;17.15;;
61523;SDS011;47393;38.758;-9.164;2022-07-05T00:28:11;24.60;;;16.85;;
61523;SDS011;47393;38.758;-9.164;2022-07-05T00:30:12;30.75;;;18.40;;
61523;SDS011;47393;38.758;-9.164;2022-07-05T00:32:14;30.90;;;18.10;;
61523;SDS011;47393;38.758;-9.164;2022-07-05T00:34:17;30.23;;;17.02;;
61523;SDS011;47393;38.758;-9.164;2022-07-05T00:36:54;28.48;;;18.25;;
61523;SDS011;47393;38.758;-9.164;2022-07-05T00:39:18;33.25;;;18.88;;
61523;SDS011;47393;38.758;-9.164;2022-07-05T00:44:27;30.73;;;16.98;;
61523;SDS011;47393;38.758;-9.164;2022-07-05T00:46:56;31.38;;;19.13;;
61523;SDS011;47393;38.758;-9.164;2022-07-05T00:49:04;21.45;;;17.65;;
61523;SDS011;47393;38.758;-9.164;2022-07-05T00:51:05;26.73;;;18.85;;
61523;SDS011;47393;38.758;-9.164;2022-07-05T00:53:07;27.73;;;17.83;;
61523;SDS011;47393;38.758;-9.164;2022-07-05T00:57:12;22.80;;;17.42;;
61523;SDS011;47393;38.758;-9.164;2022-07-05T00:59:14;33.75;;;17.35;;
61523;SDS011;47393;38.758;-9.164;2022-07-05T01:01:15;26.35;;;18.20;;
61523;SDS011;47393;38.758;-9.164;2022-07-05T01:03:17;33.05;;;19.23;;
61523;SDS011;47393;38.758;-9.164;2022-07-05T01:05:18;32.95;;;18.83;;
61523;SDS011;47393;38.758;-9.164;2022-07-05T01:07:26;32.72;;;19.60;;
61523;SDS011;47393;38.758;-9.164;2022-07-05T01:09:27;33.35;;;20.50;;
61523;SDS011;47393;38.758;-9.164;2022-07-05T01:11:33;30.23;;;20.23;;
61523;SDS011;47393;38.758;-9.164;2022-07-05T01:13:35;29.25;;;19.98;;
61523;SDS011;47393;38.758;-9.164;2022-07-05T01:15:37;29.85;;;20.77;;
61523;SDS011;47393;38.758;-9.164;2022-07-05T01:17:39;30.08;;;20.95;;
61523;SDS011;47393;38.758;-9.164;2022-07-05T01:19:44;31.40;;;22.10;;
61523;SDS011;47393;38.758;-9.164;2022-07-05T01:21:46;29.13;;;21.92;;
61523;SDS011;47393;38.758;-9.164;2022-07-05T01:23:49;39.07;;;21.53;;
61523;SDS011;47393;38.758;-9.164;2022-07-05T01:25:51;32.83;;;21.55;;
61523;SDS011;47393;38.758;-9.164;2022-07-05T01:27:53;29.75;;;22.30;;
61523;SDS011;47393;38.758;-9.164;2022-07-05T01:29:56;35.25;;;22.05;;
61523;SDS011;47393;38.758;-9.164;2022-07-05T01:32:06;35.53;;;23.08;;
61523;SDS011;47393;38.758;-9.164;2022-07-05T01:38:19;29.30;;;22.55;;
61523;SDS011;47393;38.758;-9.164;2022-07-05T01:40:55;37.55;;;21.67;;
61523;SDS011;47393;38.758;-9.164;2022-07-05T01:43:31;33.00;;;22.00;;
61523;SDS011;47393;38.758;-9.164;2022-07-05T01:45:39;29.40;;;19.70;;
61523;SDS011;47393;38.758;-9.164;2022-07-05T01:47:46;35.85;;;21.35;;
61523;SDS011;47393;38.758;-9.164;2022-07-05T01:49:51;30.95;;;22.13;;
61523;SDS011;47393;38.758;-9.164;2022-07-05T01:52:19;30.25;;;22.02;;
61523;SDS011;47393;38.758;-9.164;2022-07-05T01:54:22;31.83;;;22.23;;
61523;SDS011;47393;38.758;-9.164;2022-07-05T01:56:26;35.08;;;23.13;;
61523;SDS011;47393;38.758;-9.164;2022-07-05T01:58:30;33.13;;;23.95;;
61523;SDS011;47393;38.758;-9.164;2022-07-05T02:00:53;34.70;;;23.73;;
61523;SDS011;47393;38.758;-9.164;2022-07-05T02:02:57;32.47;;;23.40;;
61523;SDS011;47393;38.758;-9.164;2022-07-05T02:04:59;31.75;;;22.77;;
61523;SDS011;47393;38.758;-9.164;2022-07-05T02:07:06;30.95;;;22.27;;
61523;SDS011;47393;38.758;-9.164;2022-07-05T02:09:28;27.20;;;23.20;;
61523;SDS011;47393;38.758;-9.164;2022-07-05T02:11:38;33.67;;;21.67;;
61523;SDS011;47393;38.758;-9.164;2022-07-05T02:13:39;25.85;;;21.13;;
61523;SDS011;47393;38.758;-9.164;2022-07-05T02:15:45;31.38;;;23.27;;
61523;SDS011;47393;38.758;-9.164;2022-07-05T02:17:46;32.80;;;22.92;;
61523;SDS011;47393;38.758;-9.164;2022-07-05T02:19:47;28.35;;;22.63;;
61523;SDS011;47393;38.758;-9.164;2022-07-05T02:21:53;30.73;;;22.77;;
61523;SDS011;47393;38.758;-9.164;2022-07-05T02:23:54;32.60;;;22.33;;
61523;SDS011;47393;38.758;-9.164;2022-07-05T02:25:58;31.10;;;21.75;;
61523;SDS011;47393;38.758;-9.164;2022-07-05T02:28:12;35.88;;;22.58;;
61523;SDS011;47393;38.758;-9.164;2022-07-05T02:30:56;36.13;;;22.88;;
61523;SDS011;47393;38.758;-9.164;2022-07-05T02:39:27;35.15;;;23.65;;
61523;SDS011;47393;38.758;-9.164;2022-07-05T02:41:33;28.83;;;22.10;;
61523;SDS011;47393;38.758;-9.164;2022-07-05T02:43:35;39.58;;;23.83;;
61523;SDS011;47393;38.758;-9.164;2022-07-05T02:45:39;43.05;;;26.73;;
61523;SDS011;47393;38.758;-9.164;2022-07-05T02:49:47;31.17;;;24.85;;
61523;SDS011;47393;38.758;-9.164;2022-07-05T02:51:49;37.47;;;25.58;;
61523;SDS011;47393;38.758;-9.164;2022-07-05T02:54:11;33.20;;;23.15;;
61523;SDS011;47393;38.758;-9.164;2022-07-05T02:56:18;34.05;;;24.85;;
61523;SDS011;47393;38.758;-9.164;2022-07-05T02:58:24;32.17;;;23.73;;
61523;SDS011;47393;38.758;-9.164;2022-07-05T03:00:27;36.72;;;23.83;;
61523;SDS011;47393;38.758;-9.164;2022-07-05T03:02:28;37.03;;;24.00;;
61523;SDS011;47393;38.758;-9.164;2022-07-05T03:04:31;34.80;;;24.15;;
61523;SDS011;47393;38.758;-9.164;2022-07-05T03:06:36;34.75;;;24.45;;
61523;SDS011;47393;38.758;-9.164;2022-07-05T03:08:37;31.13;;;25.38;;
61523;SDS011;47393;38.758;-9.164;2022-07-05T03:10:39;38.58;;;25.10;;
61523;SDS011;47393;38.758;-9.164;2022-07-05T03:12:44;39.05;;;22.90;;
61523;SDS011;47393;38.758;-9.164;2022-07-05T03:14:47;29.00;;;22.65;;
61523;SDS011;47393;38.758;-9.164;2022-07-05T03:16:49;28.50;;;23.10;;
61523;SDS011;47393;38.758;-9.164;2022-07-05T03:18:51;30.75;;;23.00;;
61523;SDS011;47393;38.758;-9.164;2022-07-05T03:20:53;32.97;;;22.40;;
61523;SDS011;47393;38.758;-9.164;2022-07-05T03:22:56;31.02;;;21.85;;
61523;SDS011;47393;38.758;-9.164;2022-07-05T03:25:24;36.47;;;22.08;;
61523;SDS011;47393;38.758;-9.164;2022-07-05T03:27:27;33.25;;;21.40;;
61523;SDS011;47393;38.758;-9.164;2022-07-05T03:29:52;25.70;;;20.83;;
61523;SDS011;47393;38.758;-9.164;2022-07-05T03:31:57;32.95;;;21.77;;
61523;SDS011;47393;38.758;-9.164;2022-07-05T03:34:01;26.52;;;20.42;;
61523;SDS011;47393;38.758;-9.164;2022-07-05T03:36:02;30.77;;;22.88;;
61523;SDS011;47393;38.758;-9.164;2022-07-05T03:38:04;26.88;;;21.45;;
61523;SDS011;47393;38.758;-9.164;2022-07-05T03:40:29;33.70;;;24.67;;
61523;SDS011;47393;38.758;-9.164;2022-07-05T03:42:30;33.13;;;25.05;;
61523;SDS011;47393;38.758;-9.164;2022-07-05T03:44:38;35.97;;;23.08;;
61523;SDS011;47393;38.758;-9.164;2022-07-05T03:46:39;34.42;;;24.77;;
61523;SDS011;47393;38.758;-9.164;2022-07-05T03:48:47;35.15;;;25.35;;
61523;SDS011;47393;38.758;-9.164;2022-07-05T03:50:51;35.75;;;24.65;;
61523;SDS011;47393;38.758;-9.164;2022-07-05T03:52:53;30.65;;;24.35;;
61523;SDS011;47393;38.758;-9.164;2022-07-05T03:54:55;36.53;;;24.50;;
61523;SDS011;47393;38.758;-9.164;2022-07-05T03:56:56;47.95;;;24.67;;
61523;SDS011;47393;38.758;-9.164;2022-07-05T03:59:02;32.55;;;24.90;;
61523;SDS011;47393;38.758;-9.164;2022-07-05T04:01:05;32.83;;;26.77;;
61523;SDS011;47393;38.758;-9.164;2022-07-05T04:03:07;39.13;;;26.80;;
61523;SDS011;47393;38.758;-9.164;2022-07-05T04:05:08;39.67;;;27.70;;
61523;SDS011;47393;38.758;-9.164;2022-07-05T04:07:10;42.15;;;30.15;;
61523;SDS011;47393;38.758;-9.164;2022-07-05T04:09:12;45.80;;;29.75;;
61523;SDS011;47393;38.758;-9.164;2022-07-05T04:11:17;51.25;;;31.55;;
61523;SDS011;47393;38.758;-9.164;2022-07-05T04:13:21;45.15;;;30.90;;
61523;SDS011;47393;38.758;-9.164;2022-07-05T04:15:25;46.90;;;32.13;;
61523;SDS011;47393;38.758;-9.164;2022-07-05T04:17:32;52.63;;;34.35;;
61523;SDS011;47393;38.758;-9.164;2022-07-05T04:19:37;50.65;;;35.75;;
61523;SDS011;47393;38.758;-9.164;2022-07-05T04:21:44;49.63;;;32.92;;
61523;SDS011;47393;38.758;-9.164;2022-07-05T04:23:45;44.47;;;32.92;;
61523;SDS011;47393;38.758;-9.164;2022-07-05T04:25:52;51.65;;;33.13;;
61523;SDS011;47393;38.758;-9.164;2022-07-05T04:28:11;54.72;;;35.55;;
61523;SDS011;47393;38.758;-9.164;2022-07-05T04:30:18;48.60;;;33.17;;
61523;SDS011;47393;38.758;-9.164;2022-07-05T04:32:21;58.88;;;36.95;;
61523;SDS011;47393;38.758;-9.164;2022-07-05T04:34:27;45.65;;;33.40;;
61523;SDS011;47393;38.758;-9.164;2022-07-05T04:36:32;44.78;;;32.35;;
61523;SDS011;47393;38.758;-9.164;2022-07-05T04:38:35;42.10;;;31.40;;
61523;SDS011;47393;38.758;-9.164;2022-07-05T04:40:37;47.50;;;32.38;;
61523;SDS011;47393;38.758;-9.164;2022-07-05T04:42:39;44.38;;;31.40;;
61523;SDS011;47393;38.758;-9.164;2022-07-05T04:44:42;42.17;;;31.45;;
61523;SDS011;47393;38.758;-9.164;2022-07-05T04:46:43;45.58;;;30.27;;
61523;SDS011;47393;38.758;-9.164;2022-07-05T04:48:45;43.35;;;30.52;;
61523;SDS011;47393;38.758;-9.164;2022-07-05T04:53:20;41.50;;;29.45;;
61523;SDS011;47393;38.758;-9.164;2022-07-05T04:55:21;42.53;;;28.95;;
61523;SDS011;47393;38.758;-9.164;2022-07-05T04:57:22;42.63;;;29.58;;
61523;SDS011;47393;38.758;-9.164;2022-07-05T04:59:23;45.22;;;29.17;;
61523;SDS011;47393;38.758;-9.164;2022-07-05T05:01:25;44.30;;;29.70;;
61523;SDS011;47393;38.758;-9.164;2022-07-05T05:03:26;44.75;;;30.60;;
61523;SDS011;47393;38.758;-9.164;2022-07-05T05:05:27;46.50;;;32.75;;
61523;SDS011;47393;38.758;-9.164;2022-07-05T05:07:28;53.15;;;33.83;;
61523;SDS011;47393;38.758;-9.164;2022-07-05T05:09:29;49.85;;;32.50;;
61523;SDS011;47393;38.758;-9.164;2022-07-05T05:11:30;48.03;;;30.08;;
61523;SDS011;47393;38.758;-9.164;2022-07-05T05:13:34;51.67;;;33.25;;
61523;SDS011;47393;38.758;-9.164;2022-07-05T05:15:35;45.28;;;31.40;;
61523;SDS011;47393;38.758;-9.164;2022-07-05T05:17:40;55.88;;;33.85;;
61523;SDS011;47393;38.758;-9.164;2022-07-05T05:19:42;57.15;;;33.95;;
61523;SDS011;47393;38.758;-9.164;2022-07-05T05:21:43;58.35;;;35.00;;
61523;SDS011;47393;38.758;-9.164;2022-07-05T05:23:44;46.45;;;31.52;;
61523;SDS011;47393;38.758;-9.164;2022-07-05T05:25:45;50.65;;;34.78;;
61523;SDS011;47393;38.758;-9.164;2022-07-05T05:27:47;62.67;;;34.20;;
61523;SDS011;47393;38.758;-9.164;2022-07-05T05:29:50;47.30;;;31.80;;
61523;SDS011;47393;38.758;-9.164;2022-07-05T05:32:00;55.13;;;32.92;;
61523;SDS011;47393;38.758;-9.164;2022-07-05T05:34:09;48.10;;;31.48;;
61523;SDS011;47393;38.758;-9.164;2022-07-05T05:36:16;48.20;;;31.95;;
61523;SDS011;47393;38.758;-9.164;2022-07-05T05:38:28;43.78;;;30.88;;
61523;SDS011;47393;38.758;-9.164;2022-07-05T05:40:29;45.65;;;29.55;;
61523;SDS011;47393;38.758;-9.164;2022-07-05T05:42:31;44.92;;;28.30;;
61523;SDS011;47393;38.758;-9.164;2022-07-05T05:44:33;37.05;;;27.58;;
61523;SDS011;47393;38.758;-9.164;2022-07-05T05:46:36;46.45;;;27.95;;
61523;SDS011;47393;38.758;-9.164;2022-07-05T05:48:37;30.60;;;24.42;;
61523;SDS011;47393;38.758;-9.164;2022-07-05T05:50:38;38.00;;;25.85;;
61523;SDS011;47393;38.758;-9.164;2022-07-05T05:52:39;27.05;;;22.80;;
61523;SDS011;47393;38.758;-9.164;2022-07-05T05:54:40;39.53;;;22.10;;
61523;SDS011;47393;38.758;-9.164;2022-07-05T05:56:41;27.40;;;20.75;;
61523;SDS011;47393;38.758;-9.164;2022-07-05T05:58:42;26.67;;;20.50;;
61523;SDS011;47393;38.758;-9.164;2022-07-05T06:00:43;29.48;;;20.88;;
61523;SDS011;47393;38.758;-9.164;2022-07-05T06:02:49;23.85;;;19.75;;
61523;SDS011;47393;38.758;-9.164;2022-07-05T06:04:56;34.75;;;22.27;;
61523;SDS011;47393;38.758;-9.164;2022-07-05T06:06:57;26.92;;;21.15;;
61523;SDS011;47393;38.758;-9.164;2022-07-05T06:08:58;31.02;;;21.55;;
61523;SDS011;47393;38.758;-9.164;2022-07-05T06:10:59;37.53;;;23.08;;
61523;SDS011;47393;38.758;-9.164;2022-07-05T06:13:01;31.42;;;21.42;;
61523;SDS011;47393;38.758;-9.164;2022-07-05T06:15:04;32.65;;;21.35;;
61523;SDS011;47393;38.758;-9.164;2022-07-05T06:17:06;35.90;;;23.20;;
61523;SDS011;47393;38.758;-9.164;2022-07-05T06:19:13;36.28;;;22.00;;
61523;SDS011;47393;38.758;-9.164;2022-07-05T06:21:14;33.53;;;22.05;;
61523;SDS011;47393;38.758;-9.164;2022-07-05T06:23:15;31.80;;;21.17;;
61523;SDS011;47393;38.758;-9.164;2022-07-05T06:25:23;32.78;;;21.90;;
61523;SDS011;47393;38.758;-9.164;2022-07-05T06:31:08;32.40;;;20.98;;
61523;SDS011;47393;38.758;-9.164;2022-07-05T06:40:31;41.95;;;20.63;;
61523;SDS011;47393;38.758;-9.164;2022-07-05T06:43:03;44.80;;;20.45;;
61523;SDS011;47393;38.758;-9.164;2022-07-05T06:45:35;35.40;;;21.77;;
61523;SDS011;47393;38.758;-9.164;2022-07-05T06:47:37;31.48;;;19.42;;
61523;SDS011;47393;38.758;-9.164;2022-07-05T06:50:01;31.75;;;19.30;;
61523;SDS011;47393;38.758;-9.164;2022-07-05T06:52:07;31.60;;;19.63;;
61523;SDS011;47393;38.758;-9.164;2022-07-05T06:54:20;32.63;;;19.70;;
61523;SDS011;47393;38.758;-9.164;2022-07-05T06:56:25;35.58;;;20.15;;
61523;SDS011;47393;38.758;-9.164;2022-07-05T06:58:26;34.38;;;19.05;;
61523;SDS011;47393;38.758;-9.164;2022-07-05T07:00:27;28.30;;;17.38;;
61523;SDS011;47393;38.758;-9.164;2022-07-05T07:02:29;19.42;;;16.35;;
61523;SDS011;47393;38.758;-9.164;2022-07-05T07:04:30;31.20;;;18.42;;
61523;SDS011;47393;38.758;-9.164;2022-07-05T07:06:35;21.88;;;17.10;;
61523;SDS011;47393;38.758;-9.164;2022-07-05T07:08:36;30.40;;;18.63;;
61523;SDS011;47393;38.758;-9.164;2022-07-05T07:10:56;26.23;;;19.48;;
61523;SDS011;47393;38.758;-9.164;2022-07-05T07:12:58;25.40;;;17.13;;
61523;SDS011;47393;38.758;-9.164;2022-07-05T07:15:05;33.65;;;18.45;;
61523;SDS011;47393;38.758;-9.164;2022-07-05T07:17:07;28.05;;;16.33;;
61523;SDS011;47393;38.758;-9.164;2022-07-05T07:19:13;22.80;;;16.35;;
61523;SDS011;47393;38.758;-9.164;2022-07-05T07:22:09;21.05;;;16.80;;
61523;SDS011;47393;38.758;-9.164;2022-07-05T07:24:10;22.15;;;15.90;;
61523;SDS011;47393;38.758;-9.164;2022-07-05T07:26:12;24.00;;;17.05;;
61523;SDS011;47393;38.758;-9.164;2022-07-05T07:28:13;24.15;;;16.42;;
61523;SDS011;47393;38.758;-9.164;2022-07-05T07:30:22;24.63;;;15.68;;
61523;SDS011;47393;38.758;-9.164;2022-07-05T07:32:37;18.63;;;16.75;;
61523;SDS011;47393;38.758;-9.164;2022-07-05T07:34:38;27.80;;;15.70;;
61523;SDS011;47393;38.758;-9.164;2022-07-05T07:36:39;18.27;;;14.93;;
61523;SDS011;47393;38.758;-9.164;2022-07-05T07:38:40;21.13;;;16.45;;
61523;SDS011;47393;38.758;-9.164;2022-07-05T07:40:40;22.38;;;15.95;;
61523;SDS011;47393;38.758;-9.164;2022-07-05T07:42:41;26.02;;;16.80;;
61523;SDS011;47393;38.758;-9.164;2022-07-05T07:44:42;19.15;;;15.80;;
61523;SDS011;47393;38.758;-9.164;2022-07-05T07:46:43;19.73;;;14.50;;
61523;SDS011;47393;38.758;-9.164;2022-07-05T07:48:43;18.60;;;13.57;;
61523;SDS011;47393;38.758;-9.164;2022-07-05T07:50:44;17.92;;;11.98;;
61523;SDS011;47393;38.758;-9.164;2022-07-05T07:52:45;17.67;;;12.57;;
61523;SDS011;47393;38.758;-9.164;2022-07-05T07:54:46;17.33;;;14.48;;
61523;SDS011;47393;38.758;-9.164;2022-07-05T07:56:47;15.65;;;12.48;;
61523;SDS011;47393;38.758;-9.164;2022-07-05T07:58:48;19.67;;;13.50;;
61523;SDS011;47393;38.758;-9.164;2022-07-05T08:00:49;16.70;;;13.73;;
61523;SDS011;47393;38.758;-9.164;2022-07-05T08:02:49;17.85;;;14.10;;
61523;SDS011;47393;38.758;-9.164;2022-07-05T08:04:50;16.77;;;12.40;;
61523;SDS011;47393;38.758;-9.164;2022-07-05T08:06:52;17.88;;;13.32;;
61523;SDS011;47393;38.758;-9.164;2022-07-05T08:08:53;13.65;;;12.25;;
61523;SDS011;47393;38.758;-9.164;2022-07-05T08:10:54;16.65;;;12.82;;
61523;SDS011;47393;38.758;-9.164;2022-07-05T08:12:55;13.88;;;12.30;;
61523;SDS011;47393;38.758;-9.164;2022-07-05T08:14:56;12.93;;;10.75;;
61523;SDS011;47393;38.758;-9.164;2022-07-05T08:16:57;16.13;;;12.02;;
61523;SDS011;47393;38.758;-9.164;2022-07-05T08:18:59;14.95;;;12.52;;
61523;SDS011;47393;38.758;-9.164;2022-07-05T08:21:18;16.17;;;11.10;;
61523;SDS011;47393;38.758;-9.164;2022-07-05T08:23:32;17.65;;;10.43;;
61523;SDS011;47393;38.758;-9.164;2022-07-05T08:25:33;16.00;;;9.77;;
61523;SDS011;47393;38.758;-9.164;2022-07-05T08:27:34;17.50;;;9.70;;
61523;SDS011;47393;38.758;-9.164;2022-07-05T08:29:34;14.10;;;9.57;;
61523;SDS011;47393;38.758;-9.164;2022-07-05T08:31:36;10.15;;;8.27;;
61523;SDS011;47393;38.758;-9.164;2022-07-05T08:33:39;15.60;;;9.40;;
61523;SDS011;47393;38.758;-9.164;2022-07-05T08:35:40;10.77;;;8.68;;
61523;SDS011;47393;38.758;-9.164;2022-07-05T08:37:41;14.75;;;8.05;;
61523;SDS011;47393;38.758;-9.164;2022-07-05T08:39:42;14.55;;;7.97;;
61523;SDS011;47393;38.758;-9.164;2022-07-05T08:41:47;13.88;;;8.00;;
61523;SDS011;47393;38.758;-9.164;2022-07-05T08:43:50;13.70;;;8.27;;
61523;SDS011;47393;38.758;-9.164;2022-07-05T08:45:54;14.70;;;8.75;;
61523;SDS011;47393;38.758;-9.164;2022-07-05T08:47:57;12.77;;;8.15;;
61523;SDS011;47393;38.758;-9.164;2022-07-05T08:50:00;10.52;;;7.65;;
61523;SDS011;47393;38.758;-9.164;2022-07-05T08:52:03;9.88;;;8.13;;
61523;SDS011;47393;38.758;-9.164;2022-07-05T08:54:05;12.13;;;7.38;;
61523;SDS011;47393;38.758;-9.164;2022-07-05T08:56:07;17.90;;;8.20;;
61523;SDS011;47393;38.758;-9.164;2022-07-05T08:58:09;14.25;;;7.80;;
61523;SDS011;47393;38.758;-9.164;2022-07-05T09:00:10;11.90;;;7.00;;
61523;SDS011;47393;38.758;-9.164;2022-07-05T09:02:13;13.38;;;7.40;;
61523;SDS011;47393;38.758;-9.164;2022-07-05T09:06:18;11.15;;;7.25;;
61523;SDS011;47393;38.758;-9.164;2022-07-05T09:08:21;12.18;;;6.47;;
61523;SDS011;47393;38.758;-9.164;2022-07-05T09:10:25;12.02;;;5.95;;
61523;SDS011;47393;38.758;-9.164;2022-07-05T09:12:27;11.73;;;6.28;;
61523;SDS011;47393;38.758;-9.164;2022-07-05T09:14:28;26.92;;;7.20;;
61523;SDS011;47393;38.758;-9.164;2022-07-05T09:16:29;8.30;;;5.35;;
61523;SDS011;47393;38.758;-9.164;2022-07-05T09:18:44;9.82;;;5.72;;
61523;SDS011;47393;38.758;-9.164;2022-07-05T09:20:46;14.73;;;7.18;;
61523;SDS011;47393;38.758;-9.164;2022-07-05T09:22:48;8.05;;;6.07;;
61523;SDS011;47393;38.758;-9.164;2022-07-05T09:24:50;10.00;;;6.57;;
61523;SDS011;47393;38.758;-9.164;2022-07-05T09:26:51;14.13;;;6.57;;
61523;SDS011;47393;38.758;-9.164;2022-07-05T09:29:02;19.45;;;6.40;;
61523;SDS011;47393;38.758;-9.164;2022-07-05T09:31:05;10.43;;;6.43;;
61523;SDS011;47393;38.758;-9.164;2022-07-05T09:33:07;8.57;;;5.88;;
61523;SDS011;47393;38.758;-9.164;2022-07-05T09:35:20;11.68;;;5.47;;
61523;SDS011;47393;38.758;-9.164;2022-07-05T09:37:21;15.82;;;6.40;;
61523;SDS011;47393;38.758;-9.164;2022-07-05T09:39:43;9.25;;;6.22;;
61523;SDS011;47393;38.758;-9.164;2022-07-05T09:41:44;10.82;;;6.03;;
61523;SDS011;47393;38.758;-9.164;2022-07-05T09:43:44;10.32;;;4.88;;
61523;SDS011;47393;38.758;-9.164;2022-07-05T09:45:55;10.20;;;4.60;;
61523;SDS011;47393;38.758;-9.164;2022-07-05T09:47:56;12.48;;;5.32;;
61523;SDS011;47393;38.758;-9.164;2022-07-05T09:49:58;14.23;;;4.90;;
61523;SDS011;47393;38.758;-9.164;2022-07-05T09:52:06;15.70;;;4.75;;
61523;SDS011;47393;38.758;-9.164;2022-07-05T09:54:10;19.48;;;5.22;;
61523;SDS011;47393;38.758;-9.164;2022-07-05T09:56:11;10.95;;;5.18;;
61523;SDS011;47393;38.758;-9.164;2022-07-05T09:58:24;8.63;;;5.07;;
61523;SDS011;47393;38.758;-9.164;2022-07-05T10:00:35;13.07;;;5.13;;
61523;SDS011;47393;38.758;-9.164;2022-07-05T10:03:20;10.27;;;5.35;;
61523;SDS011;47393;38.758;-9.164;2022-07-05T10:05:36;7.80;;;5.15;;
61523;SDS011;47393;38.758;-9.164;2022-07-05T10:07:47;8.90;;;5.10;;
61523;SDS011;47393;38.758;-9.164;2022-07-05T10:09:49;12.90;;;5.03;;
61523;SDS011;47393;38.758;-9.164;2022-07-05T10:11:50;9.05;;;5.82;;
61523;SDS011;47393;38.758;-9.164;2022-07-05T10:13:52;11.88;;;5.07;;
61523;SDS011;47393;38.758;-9.164;2022-07-05T10:15:54;12.95;;;5.07;;
61523;SDS011;47393;38.758;-9.164;2022-07-05T10:18:04;10.65;;;5.18;;
61523;SDS011;47393;38.758;-9.164;2022-07-05T10:20:06;7.80;;;4.90;;
61523;SDS011;47393;38.758;-9.164;2022-07-05T10:22:14;15.02;;;5.30;;
61523;SDS011;47393;38.758;-9.164;2022-07-05T10:24:16;15.93;;;4.35;;
61523;SDS011;47393;38.758;-9.164;2022-07-05T10:26:18;8.68;;;4.22;;
61523;SDS011;47393;38.758;-9.164;2022-07-05T10:28:20;8.65;;;4.93;;
61523;SDS011;47393;38.758;-9.164;2022-07-05T10:30:22;11.15;;;4.57;;
61523;SDS011;47393;38.758;-9.164;2022-07-05T10:32:28;8.18;;;4.55;;
61523;SDS011;47393;38.758;-9.164;2022-07-05T10:34:30;8.75;;;4.53;;
61523;SDS011;47393;38.758;-9.164;2022-07-05T10:36:33;6.28;;;4.00;;
61523;SDS011;47393;38.758;-9.164;2022-07-05T10:38:35;6.50;;;4.10;;
61523;SDS011;47393;38.758;-9.164;2022-07-05T10:40:39;8.90;;;4.00;;
61523;SDS011;47393;38.758;-9.164;2022-07-05T10:42:52;11.52;;;4.70;;
61523;SDS011;47393;38.758;-9.164;2022-07-05T10:45:37;4.85;;;4.03;;
61523;SDS011;47393;38.758;-9.164;2022-07-05T10:47:39;20.15;;;5.03;;
61523;SDS011;47393;38.758;-9.164;2022-07-05T10:49:41;10.43;;;5.43;;
61523;SDS011;47393;38.758;-9.164;2022-07-05T10:52:02;8.88;;;5.88;;
61523;SDS011;47393;38.758;-9.164;2022-07-05T10:54:26;10.93;;;5.13;;
61523;SDS011;47393;38.758;-9.164;2022-07-05T10:56:36;13.43;;;5.07;;
61523;SDS011;47393;38.758;-9.164;2022-07-05T10:58:37;8.80;;;5.22;;
61523;SDS011;47393;38.758;-9.164;2022-07-05T11:03:32;13.27;;;5.40;;
61523;SDS011;47393;38.758;-9.164;2022-07-05T11:05:34;11.90;;;5.28;;
61523;SDS011;47393;38.758;-9.164;2022-07-05T11:09:59;11.20;;;4.90;;
61523;SDS011;47393;38.758;-9.164;2022-07-05T11:12:01;6.10;;;4.72;;
61523;SDS011;47393;38.758;-9.164;2022-07-05T11:14:04;13.35;;;5.57;;
61523;SDS011;47393;38.758;-9.164;2022-07-05T11:16:27;12.80;;;5.13;;
61523;SDS011;47393;38.758;-9.164;2022-07-05T11:18:33;11.88;;;4.55;;
61523;SDS011;47393;38.758;-9.164;2022-07-05T11:20:35;11.95;;;5.13;;
61523;SDS011;47393;38.758;-9.164;2022-07-05T11:22:37;12.98;;;4.85;;
61523;SDS011;47393;38.758;-9.164;2022-07-05T11:24:39;11.63;;;4.85;;
61523;SDS011;47393;38.758;-9.164;2022-07-05T11:26:41;11.05;;;4.95;;
61523;SDS011;47393;38.758;-9.164;2022-07-05T11:28:44;12.88;;;5.25;;
61523;SDS011;47393;38.758;-9.164;2022-07-05T11:32:52;12.57;;;4.75;;
61523;SDS011;47393;38.758;-9.164;2022-07-05T11:34:53;12.73;;;5.18;;
61523;SDS011;47393;38.758;-9.164;2022-07-05T11:37:17;12.43;;;5.10;;
61523;SDS011;47393;38.758;-9.164;2022-07-05T11:39:23;12.77;;;4.82;;
61523;SDS011;47393;38.758;-9.164;2022-07-05T11:41:26;13.05;;;5.65;;
61523;SDS011;47393;38.758;-9.164;2022-07-05T11:43:30;12.07;;;5.22;;
61523;SDS011;47393;38.758;-9.164;2022-07-05T11:45:31;10.70;;;4.93;;
61523;SDS011;47393;38.758;-9.164;2022-07-05T11:47:32;13.40;;;4.85;;
61523;SDS011;47393;38.758;-9.164;2022-07-05T11:49:34;12.90;;;5.72;;
61523;SDS011;47393;38.758;-9.164;2022-07-05T11:51:36;12.48;;;5.15;;
61523;SDS011;47393;38.758;-9.164;2022-07-05T11:54:48;11.93;;;5.45;;
61523;SDS011;47393;38.758;-9.164;2022-07-05T11:56:51;13.15;;;5.50;;
61523;SDS011;47393;38.758;-9.164;2022-07-05T11:58:55;10.30;;;4.53;;
61523;SDS011;47393;38.758;-9.164;2022-07-05T12:01:00;19.35;;;6.00;;
61523;SDS011;47393;38.758;-9.164;2022-07-05T12:03:14;11.88;;;5.03;;
61523;SDS011;47393;38.758;-9.164;2022-07-05T12:05:17;14.07;;;5.15;;
61523;SDS011;47393;38.758;-9.164;2022-07-05T12:07:51;16.75;;;5.70;;
61523;SDS011;47393;38.758;-9.164;2022-07-05T12:09:54;8.38;;;4.93;;
61523;SDS011;47393;38.758;-9.164;2022-07-05T12:12:25;13.07;;;5.00;;
61523;SDS011;47393;38.758;-9.164;2022-07-05T12:15:00;12.93;;;4.38;;
61523;SDS011;47393;38.758;-9.164;2022-07-05T12:17:19;11.55;;;4.85;;
61523;SDS011;47393;38.758;-9.164;2022-07-05T12:19:28;12.38;;;5.28;;
61523;SDS011;47393;38.758;-9.164;2022-07-05T12:21:35;13.10;;;4.57;;
61523;SDS011;47393;38.758;-9.164;2022-07-05T12:23:43;12.05;;;5.20;;
61523;SDS011;47393;38.758;-9.164;2022-07-05T12:25:48;15.38;;;4.88;;
61523;SDS011;47393;38.758;-9.164;2022-07-05T12:27:56;14.65;;;5.50;;
61523;SDS011;47393;38.758;-9.164;2022-07-05T12:30:06;15.07;;;5.60;;
61523;SDS011;47393;38.758;-9.164;2022-07-05T12:33:07;7.65;;;4.60;;
61523;SDS011;47393;38.758;-9.164;2022-07-05T12:36:00;11.13;;;3.83;;
61523;SDS011;47393;38.758;-9.164;2022-07-05T12:40:21;8.07;;;4.32;;
61523;SDS011;47393;38.758;-9.164;2022-07-05T12:46:44;12.77;;;4.90;;
61523;SDS011;47393;38.758;-9.164;2022-07-05T12:48:53;8.60;;;3.72;;
61523;SDS011;47393;38.758;-9.164;2022-07-05T12:50:58;9.40;;;3.67;;
61523;SDS011;47393;38.758;-9.164;2022-07-05T12:59:24;11.20;;;3.83;;
61523;SDS011;47393;38.758;-9.164;2022-07-05T13:01:31;7.93;;;4.13;;
61523;SDS011;47393;38.758;-9.164;2022-07-05T13:06:02;7.63;;;3.75;;
61523;SDS011;47393;38.758;-9.164;2022-07-05T13:08:03;25.20;;;4.07;;
61523;SDS011;47393;38.758;-9.164;2022-07-05T13:10:24;12.70;;;3.95;;